Time;durP1;ratioP1;P1;durP2;ratioP2;P2;SDS_P1;SDS_P2;PMS_P1;PMS_P2;Temp;Humidity;BMP_temperature;BMP_pressure;BME280_temperature;BME280_humidity;BME280_pressure;Samples;Min_cycle;Max_cycle;Signal;HPM_P1;HPM_P2
2022/05/27 00:01:55;;;;;;;2.35;1.00;;;14.80;99.90;;;;;;5027100;28;20042;-68
2022/05/27 00:04:21;;;;;;;0.45;0.45;;;14.70;99.90;;;;;;5031956;28;20058;-68
2022/05/27 00:06:46;;;;;;;0.00;0.00;;;14.60;99.90;;;;;;5023060;28;20145;-68
2022/05/27 00:09:12;;;;;;;0.65;0.63;;;14.60;99.90;;;;;;5019525;28;20096;-68
2022/05/27 00:11:37;;;;;;;0.10;0.10;;;14.60;99.90;;;;;;5033102;28;20459;-68
2022/05/27 00:14:03;;;;;;;0.10;0.10;;;14.50;99.90;;;;;;5025776;28;20592;-68
2022/05/27 00:16:29;;;;;;;0.22;0.22;;;14.40;99.90;;;;;;5031484;28;20038;-68
2022/05/27 00:18:55;;;;;;;0.30;0.30;;;14.50;99.90;;;;;;5025894;28;20136;-68
2022/05/27 00:21:21;;;;;;;0.00;0.00;;;14.50;99.90;;;;;;5030133;28;20046;-68
2022/05/27 00:23:47;;;;;;;0.57;0.57;;;14.40;99.90;;;;;;5048380;28;20044;-68
2022/05/27 00:26:13;;;;;;;0.10;0.10;;;14.40;99.90;;;;;;5022719;28;20101;-68
2022/05/27 00:28:39;;;;;;;0.63;0.63;;;14.40;99.90;;;;;;5030901;28;20052;-68
2022/05/27 00:31:05;;;;;;;0.00;0.00;;;14.40;99.90;;;;;;5029280;28;20042;-68
2022/05/27 00:33:34;;;;;;;0.13;0.13;;;14.40;99.90;;;;;;5044012;28;20437;-68
2022/05/27 00:36:00;;;;;;;0.00;0.00;;;14.30;99.90;;;;;;5029204;28;20053;-68
2022/05/27 00:38:26;;;;;;;0.30;0.30;;;14.30;99.90;;;;;;5019650;28;20068;-68
2022/05/27 00:40:52;;;;;;;0.90;0.85;;;14.30;99.90;;;;;;5036237;28;20396;-68
2022/05/27 00:43:19;;;;;;;0.25;0.17;;;14.20;99.90;;;;;;5031177;28;20495;-68
2022/05/27 00:45:52;;;;;;;0.68;0.68;;;14.20;99.90;;;;;;5022652;28;20606;-68
2022/05/27 00:48:20;;;;;;;1.98;1.38;;;14.10;99.90;;;;;;5038955;28;20056;-68
2022/05/27 00:50:48;;;;;;;0.43;0.43;;;14.10;99.90;;;;;;5024898;28;20042;-68
2022/05/27 00:53:19;;;;;;;0.10;0.10;;;14.00;99.90;;;;;;5043296;28;20057;-67
2022/05/27 00:55:49;;;;;;;0.10;0.10;;;14.10;99.90;;;;;;5028538;28;20068;-68
2022/05/27 00:58:43;;;;;;;0.20;0.20;;;14.00;99.90;;;;;;5027432;28;22236;-68
2022/05/27 01:01:08;;;;;;;0.20;0.20;;;13.90;99.90;;;;;;5026722;28;20500;-68
2022/05/27 01:03:35;;;;;;;0.52;0.52;;;13.90;99.90;;;;;;5044303;28;20037;-68
2022/05/27 01:06:01;;;;;;;0.00;0.00;;;13.90;99.90;;;;;;5017783;28;20520;-68
2022/05/27 01:08:29;;;;;;;3.72;1.65;;;13.80;99.90;;;;;;5032826;28;20068;-68
2022/05/27 01:11:16;;;;;;;0.85;0.77;;;13.80;99.90;;;;;;5026127;28;20061;-68
2022/05/27 01:13:48;;;;;;;3.42;1.25;;;13.80;99.90;;;;;;5033562;28;20049;-68
2022/05/27 01:16:39;;;;;;;0.05;0.05;;;13.80;99.90;;;;;;5037992;28;20050;-68
2022/05/27 01:22:38;;;;;;;0.40;0.30;;;13.80;99.90;;;;;;5031037;28;20049;-68
2022/05/27 01:25:39;;;;;;;0.25;0.25;;;13.80;99.90;;;;;;5020257;28;20053;-68
2022/05/27 01:28:23;;;;;;;2.25;1.75;;;13.70;99.90;;;;;;5022504;28;20401;-68
2022/05/27 01:31:17;;;;;;;0.47;0.13;;;13.70;99.90;;;;;;5033186;28;20045;-68
2022/05/27 01:33:54;;;;;;;0.30;0.30;;;13.60;99.90;;;;;;5028981;28;20045;-68
2022/05/27 01:36:27;;;;;;;0.75;0.75;;;13.60;99.90;;;;;;5029812;28;20053;-68
2022/05/27 01:39:08;;;;;;;0.20;0.20;;;13.50;99.90;;;;;;5038282;28;20400;-68
2022/05/27 01:41:40;;;;;;;1.35;0.57;;;13.50;99.90;;;;;;5037856;28;20489;-68
2022/05/27 01:44:32;;;;;;;0.00;0.00;;;13.50;99.90;;;;;;5042908;28;20041;-68
2022/05/27 01:47:02;;;;;;;0.00;0.00;;;13.50;99.90;;;;;;5039846;28;20472;-68
2022/05/27 01:49:37;;;;;;;0.00;0.00;;;13.40;99.90;;;;;;5025098;28;20042;-67
2022/05/27 01:52:21;;;;;;;10.13;0.47;;;13.50;99.90;;;;;;5035332;28;20099;-68
2022/05/27 01:55:16;;;;;;;0.45;0.45;;;13.40;99.90;;;;;;5036155;28;20057;-68
2022/05/27 01:58:00;;;;;;;0.00;0.00;;;13.40;99.90;;;;;;5028061;28;20417;-68
2022/05/27 02:00:26;;;;;;;;;;;13.40;99.90;;;;;;5027272;28;20056;-68
2022/05/27 02:03:03;;;;;;;0.10;0.10;;;13.40;99.90;;;;;;5031413;28;19932;-68
2022/05/27 02:05:51;;;;;;;0.10;0.10;;;13.30;99.90;;;;;;5023536;28;20489;-68
2022/05/27 02:08:24;;;;;;;3.03;1.10;;;13.30;99.90;;;;;;5036499;28;20102;-68
2022/05/27 02:10:55;;;;;;;0.10;0.10;;;13.30;99.90;;;;;;5044453;28;20049;-68
2022/05/27 02:13:29;;;;;;;0.00;0.00;;;13.40;99.90;;;;;;5024058;28;20046;-67
2022/05/27 02:15:55;;;;;;;2.72;1.00;;;13.40;99.90;;;;;;5034574;28;20045;-68
2022/05/27 02:18:23;;;;;;;0.80;0.80;;;13.40;99.90;;;;;;5021237;28;20069;-68
2022/05/27 02:20:57;;;;;;;3.65;1.23;;;13.30;99.90;;;;;;5036359;28;20589;-68
2022/05/27 02:23:29;;;;;;;7.32;1.35;;;13.20;99.90;;;;;;5023085;28;20095;-68
2022/05/27 02:25:59;;;;;;;0.10;0.10;;;13.10;99.90;;;;;;5022897;28;20041;-68
2022/05/27 02:28:30;;;;;;;5.22;2.38;;;13.10;99.90;;;;;;5030958;28;20052;-68
2022/05/27 02:31:04;;;;;;;0.32;0.32;;;13.00;99.90;;;;;;5039914;28;20120;-68
2022/05/27 02:36:27;;;;;;;0.05;0.05;;;12.90;99.90;;;;;;5027674;28;20405;-68
2022/05/27 02:38:53;;;;;;;0.20;0.20;;;12.90;99.90;;;;;;5036447;28;20045;-68
2022/05/27 02:41:43;;;;;;;0.10;0.10;;;12.90;99.90;;;;;;5030597;28;20370;-68
2022/05/27 02:44:27;;;;;;;1.38;0.80;;;13.00;99.90;;;;;;5032427;28;20037;-68
2022/05/27 02:47:26;;;;;;;0.88;0.70;;;12.90;99.90;;;;;;5022273;28;20177;-68
2022/05/27 02:50:12;;;;;;;0.82;0.82;;;12.90;99.90;;;;;;5020465;28;20045;-68
2022/05/27 02:53:03;;;;;;;1.38;1.27;;;12.90;99.90;;;;;;5032060;28;20394;-68
2022/05/27 02:55:47;;;;;;;0.17;0.17;;;12.90;99.90;;;;;;5034923;28;20071;-68
2022/05/27 02:58:13;;;;;;;2.20;1.38;;;12.90;99.90;;;;;;5015896;28;20563;-68
2022/05/27 03:00:41;;;;;;;0.17;0.17;;;12.90;99.90;;;;;;5037749;28;20120;-68
2022/05/27 03:03:07;;;;;;;0.55;0.52;;;12.90;99.90;;;;;;5031482;28;20038;-67
2022/05/27 03:05:41;;;;;;;1.17;0.85;;;12.90;99.90;;;;;;5024597;28;20139;-68
2022/05/27 03:08:20;;;;;;;0.70;0.28;;;13.00;99.90;;;;;;5021243;28;20096;-68
2022/05/27 03:10:57;;;;;;;0.30;0.30;;;12.80;99.90;;;;;;5043636;28;20120;-68
2022/05/27 03:14:09;;;;;;;0.20;0.20;;;12.90;99.90;;;;;;5031205;28;20132;-67
2022/05/27 03:17:05;;;;;;;0.10;0.10;;;12.80;99.90;;;;;;4995531;28;20588;-67
2022/05/27 03:20:03;;;;;;;0.17;0.17;;;12.90;99.90;;;;;;5032103;28;20041;-67
2022/05/27 03:23:01;;;;;;;2.10;1.75;;;12.90;99.90;;;;;;5016049;28;20476;-68
2022/05/27 03:25:44;;;;;;;0.10;0.10;;;12.90;99.90;;;;;;5019615;28;20041;-68
2022/05/27 03:28:33;;;;;;;7.00;0.88;;;12.80;99.90;;;;;;5027542;28;20085;-68
2022/05/27 03:31:21;;;;;;;0.10;0.10;;;12.70;99.90;;;;;;5032139;28;20107;-68
2022/05/27 03:33:57;;;;;;;0.10;0.10;;;12.70;99.90;;;;;;5012604;28;20499;-67
2022/05/27 03:36:30;;;;;;;1.05;1.02;;;12.70;99.90;;;;;;5021903;28;20124;-67
2022/05/27 03:39:09;;;;;;;0.00;0.00;;;12.70;99.90;;;;;;5034923;28;20041;-68
2022/05/27 03:41:45;;;;;;;0.00;0.00;;;12.70;99.90;;;;;;5032965;28;20044;-68
2022/05/27 03:44:15;;;;;;;0.10;0.10;;;12.70;99.90;;;;;;5019935;28;20128;-67
2022/05/27 03:46:40;;;;;;;3.42;1.02;;;12.70;99.90;;;;;;5027136;28;20037;-68
2022/05/27 03:49:06;;;;;;;0.10;0.10;;;12.60;99.90;;;;;;5014530;28;20044;-67
2022/05/27 03:51:38;;;;;;;0.13;0.13;;;12.60;99.90;;;;;;5023192;28;20056;-68
2022/05/27 03:54:10;;;;;;;0.00;0.00;;;12.60;99.90;;;;;;5025501;28;20061;-67
2022/05/27 03:56:39;;;;;;;0.10;0.10;;;12.60;99.90;;;;;;5036238;28;20481;-67
2022/05/27 03:59:06;;;;;;;0.40;0.40;;;12.50;99.90;;;;;;5039219;28;20049;-68
2022/05/27 04:01:33;;;;;;;0.10;0.10;;;12.50;99.90;;;;;;5028750;28;20413;-68
2022/05/27 04:04:01;;;;;;;4.28;2.95;;;12.60;99.90;;;;;;5028664;28;20481;-68
2022/05/27 04:06:28;;;;;;;0.10;0.10;;;12.60;99.90;;;;;;5029936;28;20131;-67
2022/05/27 04:08:57;;;;;;;0.15;0.15;;;12.60;99.90;;;;;;5038647;28;20041;-68
2022/05/27 04:11:24;;;;;;;0.00;0.00;;;12.60;99.90;;;;;;5021918;28;20040;-67
2022/05/27 04:13:50;;;;;;;1.08;1.08;;;12.60;99.90;;;;;;5015122;28;20436;-68
2022/05/27 04:16:16;;;;;;;0.90;0.30;;;12.60;99.90;;;;;;5034209;28;20041;-67
2022/05/27 04:18:41;;;;;;;0.00;0.00;;;12.50;99.90;;;;;;5038739;28;20048;-67
2022/05/27 04:21:07;;;;;;;0.57;0.17;;;12.60;99.90;;;;;;5016738;28;20033;-67
2022/05/27 04:23:33;;;;;;;0.10;0.10;;;12.70;99.90;;;;;;5023431;28;20036;-67
2022/05/27 04:25:59;;;;;;;0.10;0.10;;;12.60;99.90;;;;;;5025119;28;20042;-67
2022/05/27 04:28:25;;;;;;;1.63;0.80;;;12.60;99.90;;;;;;5035626;28;20047;-67
2022/05/27 04:30:51;;;;;;;0.20;0.20;;;12.70;99.90;;;;;;5035092;28;20476;-68
2022/05/27 04:33:16;;;;;;;0.10;0.10;;;12.80;99.90;;;;;;5029309;28;20084;-68
2022/05/27 04:35:42;;;;;;;0.00;0.00;;;12.80;99.90;;;;;;5032605;28;20045;-68
2022/05/27 04:38:08;;;;;;;0.05;0.05;;;12.80;99.90;;;;;;5020828;28;20068;-67
2022/05/27 04:40:35;;;;;;;0.45;0.45;;;12.80;99.90;;;;;;5025101;28;20041;-67
2022/05/27 04:43:02;;;;;;;0.10;0.10;;;12.80;99.90;;;;;;5036530;28;20045;-67
2022/05/27 04:45:28;;;;;;;0.10;0.10;;;12.70;99.90;;;;;;5037216;28;20050;-67
2022/05/27 04:47:54;;;;;;;0.00;0.00;;;12.80;99.90;;;;;;5019744;28;20485;-67
2022/05/27 04:50:20;;;;;;;0.10;0.10;;;12.80;99.90;;;;;;5036143;28;20068;-67
2022/05/27 04:52:46;;;;;;;0.25;0.25;;;12.90;99.90;;;;;;5024750;28;20049;-66
2022/05/27 04:55:15;;;;;;;0.10;0.10;;;12.90;99.90;;;;;;5025513;28;20390;-67
2022/05/27 04:57:44;;;;;;;0.90;0.90;;;12.90;99.90;;;;;;5037907;28;20578;-67
2022/05/27 05:00:18;;;;;;;0.30;0.30;;;12.90;99.90;;;;;;5025060;28;20064;-67
2022/05/27 05:02:44;;;;;;;;;;;12.90;99.90;;;;;;5040679;28;20428;-67
2022/05/27 05:05:13;;;;;;;0.10;0.10;;;12.90;99.90;;;;;;5043486;28;19975;-67
2022/05/27 05:07:40;;;;;;;0.10;0.10;;;12.90;99.90;;;;;;5043210;28;20083;-67
2022/05/27 05:10:08;;;;;;;0.00;0.00;;;12.90;99.90;;;;;;5028795;28;20484;-67
2022/05/27 05:12:34;;;;;;;0.20;0.20;;;12.90;99.90;;;;;;5028216;28;20541;-67
2022/05/27 05:14:59;;;;;;;0.00;0.00;;;13.00;99.90;;;;;;5045264;28;20068;-67
2022/05/27 05:17:25;;;;;;;0.10;0.10;;;13.00;99.90;;;;;;5032580;28;20044;-67
2022/05/27 05:19:53;;;;;;;4.00;1.17;;;13.00;99.90;;;;;;5025169;28;20053;-67
2022/05/27 05:22:20;;;;;;;0.13;0.13;;;13.00;99.90;;;;;;5031328;28;20511;-67
2022/05/27 05:24:45;;;;;;;0.10;0.10;;;13.10;99.90;;;;;;5022855;28;20048;-67
2022/05/27 05:27:11;;;;;;;0.00;0.00;;;13.10;99.90;;;;;;5024862;28;20049;-67
2022/05/27 05:29:36;;;;;;;0.10;0.10;;;13.10;99.90;;;;;;5017037;28;20042;-67
2022/05/27 05:32:04;;;;;;;0.30;0.30;;;13.20;99.90;;;;;;5020737;28;20167;-67
2022/05/27 05:34:30;;;;;;;0.47;0.47;;;13.30;99.90;;;;;;5050579;28;20511;-67
2022/05/27 05:36:56;;;;;;;0.63;0.60;;;13.30;99.90;;;;;;5050540;28;20045;-67
2022/05/27 05:39:22;;;;;;;0.10;0.10;;;13.30;99.90;;;;;;5028927;28;20048;-67
2022/05/27 05:41:59;;;;;;;0.55;0.55;;;13.30;99.90;;;;;;5045878;28;20056;-67
2022/05/27 05:44:26;;;;;;;0.10;0.10;;;13.20;99.90;;;;;;5039474;28;20045;-67
2022/05/27 05:46:53;;;;;;;0.05;0.05;;;13.30;99.90;;;;;;5027837;28;20033;-67
2022/05/27 05:49:19;;;;;;;0.00;0.00;;;13.30;99.90;;;;;;5020169;28;20589;-67
2022/05/27 05:51:45;;;;;;;0.10;0.10;;;13.30;99.90;;;;;;5037542;28;20045;-67
2022/05/27 05:54:11;;;;;;;0.45;0.45;;;13.40;99.90;;;;;;5023933;28;20045;-67
2022/05/27 05:56:36;;;;;;;0.60;0.35;;;13.40;99.90;;;;;;5031666;28;20092;-67
2022/05/27 05:59:02;;;;;;;0.90;0.73;;;13.40;99.90;;;;;;5019188;28;20129;-67
2022/05/27 06:01:28;;;;;;;0.10;0.10;;;13.40;99.90;;;;;;5028001;28;20045;-68
2022/05/27 06:03:53;;;;;;;0.65;0.65;;;13.40;99.90;;;;;;5034306;28;20529;-68
2022/05/27 06:06:19;;;;;;;0.10;0.10;;;13.50;99.90;;;;;;5017301;28;20493;-67
2022/05/27 06:08:44;;;;;;;0.08;0.08;;;13.40;99.90;;;;;;5023632;28;20404;-67
2022/05/27 06:11:10;;;;;;;0.10;0.10;;;13.40;99.90;;;;;;5045369;28;20049;-67
2022/05/27 06:13:36;;;;;;;1.55;0.45;;;13.40;99.90;;;;;;5019645;28;20038;-67
2022/05/27 06:16:03;;;;;;;0.80;0.73;;;13.40;99.90;;;;;;5031707;28;20045;-67
2022/05/27 06:18:29;;;;;;;3.53;1.90;;;13.40;99.90;;;;;;5028458;28;20042;-67
2022/05/27 06:20:55;;;;;;;7.53;1.95;;;13.50;99.90;;;;;;5025390;28;20044;-67
2022/05/27 06:23:22;;;;;;;0.10;0.10;;;13.50;99.90;;;;;;5016528;28;20052;-68
2022/05/27 06:26:03;;;;;;;0.45;0.45;;;13.70;99.90;;;;;;5023692;28;20137;-67
2022/05/27 06:36:43;;;;;;;0.00;0.00;;;13.70;99.90;;;;;;5036394;28;20124;-67
2022/05/27 06:39:09;;;;;;;0.10;0.10;;;13.80;99.90;;;;;;5020041;28;20132;-68
2022/05/27 06:41:35;;;;;;;0.52;0.52;;;13.80;99.90;;;;;;5023711;28;20163;-67
2022/05/27 06:44:01;;;;;;;0.95;0.95;;;13.80;99.90;;;;;;5027769;28;20119;-67
2022/05/27 06:46:28;;;;;;;0.00;0.00;;;13.90;99.90;;;;;;5022334;28;20056;-67
2022/05/27 06:48:54;;;;;;;0.10;0.10;;;13.80;99.90;;;;;;5027899;28;20049;-67
2022/05/27 06:51:20;;;;;;;0.10;0.10;;;13.80;99.90;;;;;;5047243;28;20037;-68
2022/05/27 06:53:46;;;;;;;0.00;0.00;;;13.90;99.90;;;;;;5027073;28;20052;-67
2022/05/27 06:56:12;;;;;;;2.17;1.55;;;13.90;99.90;;;;;;5016379;28;20042;-67
2022/05/27 06:58:38;;;;;;;0.65;0.47;;;14.00;99.90;;;;;;5032204;28;20377;-67
2022/05/27 07:01:04;;;;;;;0.00;0.00;;;14.00;99.90;;;;;;5026803;28;20489;-69
2022/05/27 07:03:30;;;;;;;0.10;0.10;;;14.10;99.90;;;;;;5030503;28;20578;-67
2022/05/27 07:05:56;;;;;;;0.30;0.30;;;14.30;99.90;;;;;;5026587;28;20046;-68
2022/05/27 07:08:22;;;;;;;0.00;0.00;;;14.20;99.90;;;;;;5029573;28;20129;-67
2022/05/27 07:10:47;;;;;;;0.28;0.28;;;14.10;99.90;;;;;;5047079;28;20155;-67
2022/05/27 07:13:13;;;;;;;0.35;0.35;;;14.10;99.90;;;;;;5022485;28;20493;-68
2022/05/27 07:15:40;;;;;;;0.30;0.30;;;14.10;99.90;;;;;;5024331;28;20049;-68
2022/05/27 07:18:08;;;;;;;0.20;0.20;;;14.00;99.90;;;;;;5027252;28;20046;-67
2022/05/27 07:20:36;;;;;;;1.38;1.25;;;13.80;99.90;;;;;;5025491;28;20046;-67
2022/05/27 07:23:03;;;;;;;0.03;0.03;;;13.80;99.90;;;;;;5019745;28;20145;-67
2022/05/27 07:25:29;;;;;;;0.10;0.10;;;13.90;99.90;;;;;;5022610;28;20745;-67
2022/05/27 07:27:54;;;;;;;0.50;0.45;;;13.90;99.90;;;;;;5025302;28;20041;-67
2022/05/27 07:30:20;;;;;;;1.13;0.85;;;14.00;99.90;;;;;;5022317;28;20397;-67
2022/05/27 07:32:46;;;;;;;0.15;0.15;;;14.10;99.90;;;;;;5020445;28;20046;-67
2022/05/27 07:35:12;;;;;;;17.55;0.70;;;14.20;99.90;;;;;;5031410;28;20055;-67
2022/05/27 07:37:38;;;;;;;7.57;1.95;;;14.20;99.90;;;;;;5018380;28;20052;-67
2022/05/27 07:40:05;;;;;;;0.22;0.22;;;14.30;99.90;;;;;;5025012;28;20045;-67
2022/05/27 07:42:30;;;;;;;0.35;0.35;;;14.50;99.90;;;;;;5033236;28;20040;-67
2022/05/27 07:44:56;;;;;;;0.10;0.10;;;14.60;99.90;;;;;;5029058;28;20050;-67
2022/05/27 07:47:21;;;;;;;0.25;0.17;;;14.60;99.90;;;;;;5033501;28;20045;-68
2022/05/27 07:49:48;;;;;;;2.35;1.95;;;14.50;99.90;;;;;;5033947;28;20049;-68
2022/05/27 07:52:13;;;;;;;0.15;0.15;;;14.50;99.90;;;;;;5019894;28;20049;-68
2022/05/27 07:54:39;;;;;;;0.40;0.40;;;14.60;99.90;;;;;;5039772;28;20188;-68
2022/05/27 07:57:23;;;;;;;0.32;0.32;;;14.50;99.90;;;;;;5018038;28;20057;-67
2022/05/27 07:59:50;;;;;;;0.10;0.10;;;14.50;99.90;;;;;;5026229;28;20053;-68
2022/05/27 08:02:16;;;;;;;0.10;0.10;;;14.60;99.90;;;;;;5027103;28;20049;-68
2022/05/27 08:04:42;;;;;;;1.33;1.13;;;14.60;99.90;;;;;;5014630;28;21058;-68
2022/05/27 08:07:07;;;;;;;0.20;0.20;;;14.70;99.90;;;;;;5034236;28;20116;-69
2022/05/27 08:09:33;;;;;;;1.85;0.85;;;14.70;99.90;;;;;;5046406;28;20064;-69
2022/05/27 08:11:58;;;;;;;0.65;0.65;;;14.70;99.90;;;;;;5033731;28;20040;-70
2022/05/27 08:14:24;;;;;;;0.30;0.30;;;14.60;99.90;;;;;;5028147;28;20553;-69
2022/05/27 08:16:50;;;;;;;0.00;0.00;;;14.60;99.90;;;;;;5018332;28;20088;-69
2022/05/27 08:19:16;;;;;;;0.03;0.03;;;14.60;99.90;;;;;;5025848;28;20103;-68
2022/05/27 08:21:41;;;;;;;3.38;1.55;;;14.60;99.90;;;;;;5023766;28;20165;-69
2022/05/27 08:24:08;;;;;;;9.68;1.65;;;14.60;99.90;;;;;;5023087;28;20045;-69
2022/05/27 08:26:33;;;;;;;2.35;0.82;;;14.50;99.90;;;;;;5044636;28;20045;-69
2022/05/27 08:28:59;;;;;;;0.57;0.57;;;14.60;99.90;;;;;;5018475;28;20041;-69
2022/05/27 08:31:24;;;;;;;0.47;0.47;;;14.70;99.90;;;;;;5024511;28;20080;-69
2022/05/27 08:39:19;;;;;;;0.20;0.20;;;14.70;99.90;;;;;;5021008;28;20057;-69
2022/05/27 08:42:05;;;;;;;0.10;0.10;;;14.60;99.90;;;;;;5031962;28;20033;-68
2022/05/27 08:44:43;;;;;;;0.32;0.32;;;14.90;99.90;;;;;;5017150;28;20049;-69
2022/05/27 08:47:31;;;;;;;0.10;0.10;;;14.80;99.90;;;;;;5045717;28;20048;-69
2022/05/27 08:50:05;;;;;;;0.10;0.10;;;15.00;99.90;;;;;;5016125;28;20053;-68
2022/05/27 08:52:45;;;;;;;0.00;0.00;;;15.00;99.90;;;;;;5023437;28;20120;-69
2022/05/27 09:01:22;;;;;;;0.55;0.55;;;14.90;99.90;;;;;;5032405;28;20481;-68
2022/05/27 09:03:58;;;;;;;0.55;0.55;;;15.00;99.90;;;;;;5038774;28;20120;-69
2022/05/27 09:06:39;;;;;;;0.05;0.05;;;15.10;99.90;;;;;;5047246;28;20102;-68
2022/05/27 09:09:10;;;;;;;0.00;0.00;;;15.20;99.90;;;;;;5012212;28;20508;-68
2022/05/27 09:12:14;;;;;;;0.35;0.35;;;15.10;99.90;;;;;;5025605;28;20057;-68
2022/05/27 09:14:45;;;;;;;1.05;0.98;;;15.10;99.90;;;;;;5040096;28;20153;-68
2022/05/27 09:17:20;;;;;;;0.10;0.10;;;15.40;99.90;;;;;;5025357;28;20123;-68
2022/05/27 09:20:02;;;;;;;4.82;2.22;;;15.40;99.90;;;;;;5025475;28;20055;-68
2022/05/27 09:22:40;;;;;;;0.10;0.10;;;15.30;99.90;;;;;;5048180;28;20041;-69
2022/05/27 09:25:23;;;;;;;0.10;0.10;;;15.20;99.90;;;;;;5037159;28;20099;-69
2022/05/27 09:28:14;;;;;;;0.10;0.10;;;15.20;99.90;;;;;;5023007;28;20049;-69
2022/05/27 09:30:41;;;;;;;0.43;0.40;;;15.10;99.90;;;;;;5029465;28;20432;-69
2022/05/27 09:33:10;;;;;;;0.10;0.10;;;15.10;99.90;;;;;;5041466;28;20649;-69
2022/05/27 09:35:45;;;;;;;0.10;0.10;;;15.30;99.90;;;;;;5030263;28;20046;-69
2022/05/27 09:38:23;;;;;;;5.32;1.38;;;15.40;99.90;;;;;;5027978;28;20136;-69
2022/05/27 09:40:54;;;;;;;0.10;0.10;;;15.50;99.90;;;;;;5030418;28;20064;-68
2022/05/27 09:43:33;;;;;;;0.15;0.15;;;15.80;99.90;;;;;;5036504;28;20053;-69
2022/05/27 09:46:02;;;;;;;0.57;0.57;;;15.90;99.90;;;;;;5027810;28;20050;-69
2022/05/27 09:48:29;;;;;;;0.10;0.10;;;16.10;99.90;;;;;;5023323;28;20081;-69
2022/05/27 09:50:59;;;;;;;0.13;0.13;;;15.70;99.90;;;;;;5023451;28;20394;-69
2022/05/27 09:53:40;;;;;;;0.40;0.40;;;15.60;99.90;;;;;;5030377;28;20789;-69
2022/05/27 09:56:08;;;;;;;0.00;0.00;;;15.50;99.90;;;;;;5025782;28;20140;-69
2022/05/27 09:58:37;;;;;;;0.10;0.10;;;15.50;99.90;;;;;;5030245;28;20077;-68
2022/05/27 10:01:18;;;;;;;0.17;0.17;;;15.40;99.90;;;;;;5017748;28;20057;-69
2022/05/27 10:03:43;;;;;;;0.25;0.25;;;15.30;99.90;;;;;;5027938;28;20060;-70
2022/05/27 10:06:12;;;;;;;0.10;0.10;;;15.60;99.90;;;;;;5015505;28;20033;-69
2022/05/27 10:08:55;;;;;;;5.60;0.65;;;15.50;99.90;;;;;;5028584;28;20132;-69
2022/05/27 10:11:26;;;;;;;6.70;1.95;;;15.40;99.90;;;;;;5049871;28;20041;-70
2022/05/27 10:14:17;;;;;;;0.30;0.30;;;15.50;99.90;;;;;;5025444;28;20049;-70
2022/05/27 10:16:57;;;;;;;0.10;0.10;;;15.90;99.90;;;;;;5028177;28;20176;-69
2022/05/27 10:19:25;;;;;;;0.10;0.10;;;16.40;99.90;;;;;;5025695;28;20041;-70
2022/05/27 10:21:54;;;;;;;0.30;0.30;;;16.00;99.90;;;;;;5029854;28;20042;-69
2022/05/27 10:24:22;;;;;;;0.73;0.57;;;15.80;99.90;;;;;;5022574;28;20101;-69
2022/05/27 10:27:05;;;;;;;0.17;0.17;;;16.20;99.90;;;;;;5048877;28;20057;-69
2022/05/27 10:29:33;;;;;;;0.00;0.00;;;16.20;99.90;;;;;;5049422;28;20040;-70
2022/05/27 10:32:01;;;;;;;0.73;0.73;;;16.00;99.90;;;;;;5021140;28;20113;-70
2022/05/27 10:34:46;;;;;;;0.00;0.00;;;15.90;99.90;;;;;;5033649;28;20076;-70
2022/05/27 10:37:38;;;;;;;0.10;0.10;;;16.30;99.90;;;;;;5048854;28;20485;-70
2022/05/27 10:40:09;;;;;;;0.52;0.38;;;16.20;99.90;;;;;;5022187;28;20045;-70
2022/05/27 10:42:51;;;;;;;0.10;0.10;;;16.00;99.90;;;;;;5025615;28;20049;-69
2022/05/27 10:45:31;;;;;;;0.20;0.20;;;16.00;99.90;;;;;;5043136;28;20049;-68
2022/05/27 10:48:31;;;;;;;0.00;0.00;;;15.80;99.90;;;;;;5010406;28;20042;-68
2022/05/27 10:51:10;;;;;;;0.10;0.10;;;15.70;99.90;;;;;;5034068;28;20045;-69
2022/05/27 10:54:07;;;;;;;21.77;0.68;;;15.60;99.90;;;;;;5048661;28;20061;-70
2022/05/27 10:56:38;;;;;;;0.32;0.32;;;15.50;99.90;;;;;;5029331;28;20042;-69
2022/05/27 11:02:36;;;;;;;0.10;0.10;;;15.30;99.90;;;;;;5018447;28;20050;-70
2022/05/27 11:05:43;;;;;;;0.52;0.52;;;15.30;99.90;;;;;;5028357;28;20099;-70
2022/05/27 11:08:24;;;;;;;0.00;0.00;;;15.30;99.90;;;;;;5010715;28;20096;-70
2022/05/27 11:11:15;;;;;;;0.10;0.10;;;15.50;99.90;;;;;;5020494;28;20120;-70
2022/05/27 11:17:00;;;;;;;0.25;0.25;;;15.70;99.90;;;;;;5018794;28;20049;-70
2022/05/27 11:19:45;;;;;;;0.40;0.40;;;15.70;99.90;;;;;;5016736;28;20075;-69
2022/05/27 11:22:27;;;;;;;0.30;0.30;;;16.10;99.90;;;;;;5023303;28;20080;-70
2022/05/27 11:25:06;;;;;;;0.10;0.10;;;16.60;99.90;;;;;;5026594;28;20072;-70
2022/05/27 11:28:02;;;;;;;0.43;0.20;;;16.60;99.90;;;;;;5024523;28;20254;-70
2022/05/27 11:30:52;;;;;;;0.35;0.35;;;16.40;99.90;;;;;;5027958;28;20060;-70
2022/05/27 11:33:33;;;;;;;0.10;0.10;;;16.50;99.90;;;;;;5011882;28;20050;-70
2022/05/27 11:36:40;;;;;;;0.68;0.50;;;16.10;99.90;;;;;;5018072;28;20103;-70
2022/05/27 11:39:18;;;;;;;0.10;0.10;;;16.00;99.90;;;;;;5009942;28;20090;-70
2022/05/27 11:42:20;;;;;;;0.00;0.00;;;16.10;99.90;;;;;;5021791;28;20084;-70
2022/05/27 11:45:08;;;;;;;0.10;0.10;;;16.10;99.90;;;;;;5035802;28;20041;-70
2022/05/27 11:47:53;;;;;;;2.22;1.00;;;16.20;99.90;;;;;;5020745;28;20397;-72
2022/05/27 11:50:49;;;;;;;0.15;0.15;;;16.20;99.90;;;;;;5019944;28;20060;-72
2022/05/27 11:53:53;;;;;;;0.13;0.13;;;16.30;99.90;;;;;;5023052;28;20091;-72
2022/05/27 11:56:28;;;;;;;;;;;16.60;99.90;;;;;;4986193;28;20094;-73
2022/05/27 11:59:08;;;;;;;0.32;0.32;;;16.50;99.90;;;;;;5001174;28;20408;-72
2022/05/27 12:01:55;;;;;;;0.20;0.20;;;16.50;99.90;;;;;;5012708;28;20497;-71
2022/05/27 12:04:51;;;;;;;1.00;0.90;;;16.30;99.90;;;;;;5006538;28;20054;-71
2022/05/27 12:07:41;;;;;;;0.00;0.00;;;16.40;99.90;;;;;;5008007;28;20064;-70
2022/05/27 12:10:18;;;;;;;0.22;0.22;;;16.30;99.90;;;;;;5008271;28;20084;-71
2022/05/27 12:12:51;;;;;;;0.03;0.03;;;16.20;99.90;;;;;;5009332;28;20050;-71
2022/05/27 12:15:34;;;;;;;2.42;1.60;;;15.90;99.90;;;;;;5025915;28;20128;-72
2022/05/27 12:18:01;;;;;;;0.65;0.65;;;16.30;99.90;;;;;;5032525;28;20065;-71
2022/05/27 12:20:33;;;;;;;0.00;0.00;;;16.20;99.90;;;;;;5031081;28;20041;-71
2022/05/27 12:23:04;;;;;;;0.43;0.43;;;16.90;99.90;;;;;;5020279;28;20045;-70
2022/05/27 12:25:34;;;;;;;0.98;0.17;;;16.70;99.90;;;;;;5011527;28;20088;-71
2022/05/27 12:28:02;;;;;;;0.20;0.20;;;16.60;99.90;;;;;;5010531;28;20037;-71
2022/05/27 12:30:37;;;;;;;0.52;0.38;;;16.40;99.90;;;;;;5014646;28;20524;-70
2022/05/27 12:33:03;;;;;;;0.00;0.00;;;16.50;99.90;;;;;;5027930;28;20049;-70
2022/05/27 12:35:31;;;;;;;0.08;0.08;;;16.30;99.90;;;;;;5023503;28;20397;-70
2022/05/27 12:38:05;;;;;;;0.88;0.52;;;16.40;99.90;;;;;;5030576;28;20515;-70
2022/05/27 12:40:33;;;;;;;1.10;1.08;;;16.30;99.90;;;;;;5031038;28;20041;-70
2022/05/27 12:43:21;;;;;;;0.30;0.30;;;16.00;99.90;;;;;;5012415;28;20045;-70
2022/05/27 12:46:01;;;;;;;0.05;0.05;;;16.00;99.90;;;;;;5010491;28;20103;-70
2022/05/27 12:48:30;;;;;;;0.65;0.40;;;16.00;99.90;;;;;;5019775;28;20130;-70
2022/05/27 12:51:03;;;;;;;0.73;0.70;;;16.80;99.90;;;;;;5011850;28;20056;-70
2022/05/27 12:53:39;;;;;;;6.85;1.10;;;16.60;99.90;;;;;;5011049;28;20417;-70
2022/05/27 13:02:23;;;;;;;2.17;1.85;;;16.60;99.90;;;;;;5010310;28;20078;-71
2022/05/27 13:04:56;;;;;;;0.65;0.65;;;16.70;99.90;;;;;;5010318;28;20081;-70
2022/05/27 13:07:28;;;;;;;0.52;0.52;;;16.40;99.90;;;;;;5030218;28;20045;-70
2022/05/27 13:09:55;;;;;;;3.10;0.82;;;16.30;99.90;;;;;;5019748;28;20427;-70
2022/05/27 13:12:46;;;;;;;0.00;0.00;;;16.30;99.90;;;;;;5011107;28;20046;-70
2022/05/27 13:15:24;;;;;;;0.47;0.47;;;16.50;99.90;;;;;;5019807;28;20293;-70
2022/05/27 13:18:09;;;;;;;0.00;0.00;;;16.60;99.90;;;;;;5027434;28;20046;-70
2022/05/27 13:21:12;;;;;;;0.20;0.20;;;17.00;99.90;;;;;;5031016;28;20045;-70
2022/05/27 13:23:58;;;;;;;0.93;0.85;;;17.90;99.90;;;;;;5012413;28;20053;-70
2022/05/27 13:26:51;;;;;;;0.52;0.52;;;17.70;99.90;;;;;;5009522;28;20042;-70
2022/05/27 13:29:28;;;;;;;0.52;0.52;;;17.50;99.90;;;;;;5018147;28;20049;-68
2022/05/27 13:32:13;;;;;;;0.10;0.10;;;18.00;99.90;;;;;;5014430;28;20383;-68
2022/05/27 13:35:01;;;;;;;1.55;0.55;;;17.60;99.90;;;;;;5023953;28;20084;-68
2022/05/27 13:37:38;;;;;;;1.30;0.47;;;17.50;99.90;;;;;;5018329;28;20505;-69
2022/05/27 13:40:23;;;;;;;0.20;0.20;;;17.10;99.90;;;;;;5030507;28;20403;-69
2022/05/27 13:42:54;;;;;;;2.22;1.30;;;16.90;99.90;;;;;;5020293;28;20042;-66
2022/05/27 13:45:23;;;;;;;0.10;0.10;;;16.80;99.90;;;;;;5017525;28;20041;-69
2022/05/27 13:48:04;;;;;;;0.20;0.20;;;16.60;99.90;;;;;;5021607;28;20051;-69
2022/05/27 13:50:37;;;;;;;0.95;0.63;;;16.70;99.90;;;;;;5011473;28;20048;-69
2022/05/27 13:53:18;;;;;;;0.10;0.10;;;16.40;99.90;;;;;;5023438;28;20076;-70
2022/05/27 13:55:44;;;;;;;0.68;0.68;;;16.40;99.90;;;;;;5022919;28;20485;-69
2022/05/27 13:58:10;;;;;;;0.10;0.10;;;16.40;99.90;;;;;;5017138;28;20058;-69
2022/05/27 14:00:42;;;;;;;1.15;0.68;;;16.20;99.90;;;;;;5028622;28;20115;-69